Shunwa — 3FIT3 — position and weather

sailwx.info

Track history (hours):
 
Tides and Currents Weather Stations Pressure Air Temp Water Temp Dewpoint Dewpoint Depression Visibility Wind Speed Wind Dir Waves Ship Positions

Shunwa

Last reported at 2017-Dec-18 18:08 UTC. Time now 2018-Feb-26 03:52 UTC.
Position N 01°15' E 104°06'.
Warning: this ship's position is months out of date.

Length 169 m; draft 9.7 m.

Type: Cargo ship. MMSI: 356050000.

Date/timePositionNaut miles runAvg speedWind from/ knotsBaromVisibWave heightAir tempDewpointWater temp
2017-Dec-18 18:08N 01°15' E 104°06'2 9.8
2017-Dec-18 17:56N 01°15' E 104°04'4 9.5
2017-Dec-18 17:30N 01°15' E 103°60'5 9.1
2017-Dec-18 16:58N 01°13' E 103°55'3 6.4
2017-Dec-18 16:30N 01°15' E 103°53'0 0.2
2017-Dec-18 15:54N 01°15' E 103°53'0 0.0
2017-Dec-18 14:54N 01°15' E 103°53'0 0.0
2017-Dec-18 14:24N 01°15' E 103°53'0 0.0
2017-Dec-18 13:45N 01°15' E 103°53'0 0.0
2017-Dec-18 12:57N 01°15' E 103°53'0 0.0
2017-Dec-18 12:27N 01°15' E 103°53'0 0.0
2017-Dec-18 11:54N 01°15' E 103°53'0 0.0
2017-Dec-18 11:27N 01°15' E 103°53'0 0.0
2017-Dec-18 10:57N 01°15' E 103°53'0 0.0
2017-Dec-18 10:27N 01°15' E 103°53'0 0.0
2017-Dec-18 09:42N 01°15' E 103°53'0 0.3
2017-Dec-18 09:27N 01°15' E 103°53'2 4.1
2017-Dec-18 09:00N 01°13' E 103°54'2 4.8
2017-Dec-18 08:30N 01°12' E 103°52'3 6.3
2017-Dec-18 08:00N 01°10' E 103°49'3 7.0
2017-Dec-18 07:30N 01°08' E 103°46'4 8.8
2017-Dec-18 07:00N 01°05' E 103°43'4 8.3
2017-Dec-18 06:30N 01°03' E 103°40'510.0
2017-Dec-18 06:00N 01°05' E 103°35'510.8
2017-Dec-18 05:30N 01°07' E 103°30'611.4
2017-Dec-18 04:58N 01°11' E 103°25'  
Track history (hours):
 
Tides and Currents Weather Stations Pressure Air Temp Water Temp Dewpoint Dewpoint Depression Visibility Wind Speed Wind Dir Waves Ship Positions

Shunwa

Last reported at 2017-Dec-18 18:08 UTC. Time now 2018-Feb-26 03:52 UTC.
Position N 01°15' E 104°06'.
Warning: this ship's position is months out of date.

Length 169 m; draft 9.7 m.

Type: Cargo ship. MMSI: 356050000.

Date/timePositionNaut miles runAvg speedWind from/ knotsBaromVisibWave heightAir tempDewpointWater temp
2017-Dec-18 18:08N 01°15' E 104°06'2 9.8
2017-Dec-18 17:56N 01°15' E 104°04'4 9.5
2017-Dec-18 17:30N 01°15' E 103°60'5 9.1
2017-Dec-18 16:58N 01°13' E 103°55'3 6.4
2017-Dec-18 16:30N 01°15' E 103°53'0 0.2
2017-Dec-18 15:54N 01°15' E 103°53'0 0.0
2017-Dec-18 14:54N 01°15' E 103°53'0 0.0
2017-Dec-18 14:24N 01°15' E 103°53'0 0.0
2017-Dec-18 13:45N 01°15' E 103°53'0 0.0
2017-Dec-18 12:57N 01°15' E 103°53'0 0.0
2017-Dec-18 12:27N 01°15' E 103°53'0 0.0
2017-Dec-18 11:54N 01°15' E 103°53'0 0.0
2017-Dec-18 11:27N 01°15' E 103°53'0 0.0
2017-Dec-18 10:57N 01°15' E 103°53'0 0.0
2017-Dec-18 10:27N 01°15' E 103°53'0 0.0
2017-Dec-18 09:42N 01°15' E 103°53'0 0.3
2017-Dec-18 09:27N 01°15' E 103°53'2 4.1
2017-Dec-18 09:00N 01°13' E 103°54'2 4.8
2017-Dec-18 08:30N 01°12' E 103°52'3 6.3
2017-Dec-18 08:00N 01°10' E 103°49'3 7.0
2017-Dec-18 07:30N 01°08' E 103°46'4 8.8
2017-Dec-18 07:00N 01°05' E 103°43'4 8.3
2017-Dec-18 06:30N 01°03' E 103°40'510.0
2017-Dec-18 06:00N 01°05' E 103°35'510.8
2017-Dec-18 05:30N 01°07' E 103°30'611.4
2017-Dec-18 04:58N 01°11' E 103°25'  

Dump ship's entire track history